• Join FlightAware (Why Join?)
  • Login
  • US Flag 
10:50PM EST


 

Airport Tracker/Info


-or-


 

Live Flight TrackerFlight Track Log ✈ SWA1086 ✈ 21-Apr-2013 ✈ KOKC - KMCI

Flight Track Log - Related Links

Times and Time Zones

All times are in EDT time to prevent confusion due to time zone crossing. See the SWA1086 flight status page for this flight to view local times or setup timezone preferences in your user account.

Time Position Orientation Groundspeed Altitude Reporting Facility
EDT Latitude Longitude Course Direction KTS MPH feet Rate Location/Type
11:03AM 35.3561 -97.6044 201° Southwest 168 193 3,000  Level Fort Worth Center
11:04AM 35.3706 -97.6581 288° West 265 305 5,800 2,880 Climbing Fort Worth Center
11:07AM 35.5531 -97.5936 16° North 320 368 12,900 3,120 Climbing Kansas City Center
11:08AM 35.6669 -97.5531 16° North 347 399 16,600 3,300 Climbing Kansas City Center
11:09AM 35.7639 -97.5186 16° North 358 412 19,800 2,400 Climbing Kansas City Center
11:10AM 35.8619 -97.4839 16° North 361 415 21,600 2,160 Climbing Kansas City Center
11:11AM 35.9653 -97.4461 16° North 377 434 24,300 2,100 Climbing Kansas City Center
11:12AM 36.0658 -97.3797 28° Northeast 407 468 26,000 1,740 Climbing Kansas City Center
11:13AM 36.1689 -97.3092 29° Northeast 418 481 28,000 1,800 Climbing Kansas City Center
11:14AM 36.2728 -97.2372 29° Northeast 425 489 29,800 1,440 Climbing Kansas City Center
11:15AM 36.3983 -97.1517 29° Northeast 428 493 31,000 900 Climbing Kansas City Center
11:16AM 36.5031 -97.0781 29° Northeast 430 495 31,700 1,200 Climbing Kansas City Center
11:17AM 36.5958 -97.0139 29° Northeast 431 496 33,600 1,560 Climbing Kansas City Center
11:18AM 36.7167 -96.9294 29° Northeast 417 480 35,000 660 Climbing Kansas City Center
11:19AM 36.8203 -96.8561 30° Northeast 422 486 35,000  Level Kansas City Center
11:20AM 36.9267 -96.7825 29° Northeast 426 490 35,000  Level Kansas City Center
11:21AM 37.0294 -96.7089 30° Northeast 429 494 35,000  Level Kansas City Center
11:22AM 37.1331 -96.6356 29° Northeast 427 491 35,000  Level Kansas City Center
11:23AM 37.2397 -96.5622 29° Northeast 430 495 35,000  Level Kansas City Center
11:24AM 37.3450 -96.4872 30° Northeast 433 498 35,000  Level Kansas City Center
11:25AM 37.4497 -96.4111 30° Northeast 432 497 35,000 -240 Level Kansas City Center
11:26AM 37.5531 -96.3367 30° Northeast 428 493 34,600 -780 Descending Kansas City Center
11:27AM 37.6775 -96.2489 29° Northeast 435 501 33,500 -1,020 Descending Kansas City Center
11:28AM 37.7839 -96.1722 30° Northeast 440 506 32,600 -960 Descending Kansas City Center
11:29AM 37.8933 -96.0922 30° Northeast 434 499 31,600 -960 Descending Kansas City Center
11:30AM 37.9939 -96.0206 29° Northeast 435 501 30,700 -1,020 Descending Kansas City Center
11:32AM 38.1114 -95.9342 30° Northeast 435 501 29,600 -1,020 Descending Kansas City Center
11:33AM 38.2122 -95.8608 30° Northeast 437 503 28,700 -1,020 Descending Kansas City Center
11:34AM 38.3297 -95.7747 30° Northeast 436 502 27,600 -1,020 Descending Kansas City Center
11:35AM 38.4303 -95.7003 30° Northeast 435 501 26,600 -1,500 Descending Kansas City Center
11:36AM 38.5278 -95.6278 30° Northeast 427 491 24,500 -2,280 Descending Kansas City Center
11:37AM 38.6350 -95.5489 30° Northeast 404 465 22,000 -2,280 Descending Kansas City Center
11:38AM 38.7233 -95.4814 31° Northeast 390 449 19,900 -2,040 Descending Kansas City Center
11:39AM 38.8186 -95.4044 32° Northeast 363 418 17,900 -1,920 Descending Kansas City Center
11:40AM 38.8803 -95.3169 48° Northeast 344 396 16,000 -2,100 Descending Kansas City Center
11:41AM 38.9503 -95.2156 48° Northeast 342 394 13,700 -1,920 Descending Kansas City Center
11:42AM 39.0094 -95.1331 47° Northeast 332 382 12,000 -840 Descending Kansas City Center
11:43AM 39.0769 -95.0361 48° Northeast 330 380 12,000 -600 Level Kansas City Center
11:44AM 39.1344 -94.9539 48° Northeast 326 375 10,800 -1,380 Descending Kansas City Center
11:45AM 39.2022 -94.8742 42° Northeast 304 350 9,200 -1,560 Descending Kansas City Center
11:46AM 39.2814 -94.8658 North 296 341 7,700 -1,380 Descending Kansas City Center
11:47AM 39.3617 -94.8475 10° North 264 304 6,500 -1,320 Descending Kansas City Center
11:48AM 39.4281 -94.8236 16° North 258 297 5,000 -1,440 Descending Kansas City Center
11:49AM 39.4572 -94.7458 64° Northeast 219 252 3,600 -1,080 Descending Kansas City Center
11:50AM 39.4167 -94.7061 143° Southeast 189 217 2,800 -780 Descending Kansas City Center
11:51AM 39.3758 -94.7056 179° South 151 174 2,100 -720 Descending Kansas City Center
11:52AM 39.3381 -94.7161 192° South 127 146 1,400 -540 Descending Kansas City Center
11:53AM 39.3025 -94.7264 193° South 128 147 1,000 -420 Descending Kansas City Center